SCIE

Carriel Sur Airport

Concepcion, Chile
TAF SCIE 181000Z 1812/1912 20005KT CAVOK TX25/1819Z TN12/1911Z BECMG 1815/1817 22010KT BECMG 1902/1904 22004KT TEMPO 1908/1912 BKN010
Issued Valid From Valid To
Jan-18 @ 10:00 UTC
(2 hours ago)
Jan-18 @ 12:00 UTC
(in 7 minutes)
Jan-19 @ 12:00 UTC
(in 24 hours)
Jan-18 @ 12:00 to Jan-18 @ 15:00
TAF SCIE 181000Z 1812/1912 20005KT CAVOK TX25/1819Z TN12/1911Z
Wind Visibility Clouds
200° at 5 knots 10,000+ meters
  • No significant clouds
Becoming Jan-18 @ 15:00 to Jan-19 @ 02:00
BECMG 1815/1817 22010KT
Wind Visibility Clouds
220° at 10 knots 10,000+ meters
  • No significant clouds
Becoming Jan-19 @ 02:00 to Jan-19 @ 12:00
BECMG 1902/1904 22004KT
Wind Visibility Clouds
220° at 4 knots 10,000+ meters
  • No significant clouds
Temporary Jan-19 @ 08:00 to Jan-19 @ 12:00
TEMPO 1908/1912 BKN010
Clouds
  • Broken at 1,000' AGL
TAF SCIE 181000Z 1812/1912 20005KT CAVOK TX25/1819Z TN12/1911Z BECMG 1815/1817 22010KT BECMG 1902/1904 22004KT TEMPO 1908/1912 BKN010
Issued Jan-18 @ 10:00 UTC
(2 hours ago)
Valid From Jan-18 @ 12:00 UTC
(in 7 minutes)
Valid To Jan-19 @ 12:00 UTC
(in 24 hours)
Jan-18 @ 12:00 - Jan-18 @ 15:00
Wind Visibility
200° at 5 knots 10,000+ meters
Clouds
  • No significant clouds
Becoming Jan-18 @ 15:00 - Jan-19 @ 02:00
Wind Visibility
220° at 10 knots 10,000+ meters
Clouds
  • No significant clouds
Becoming Jan-19 @ 02:00 - Jan-19 @ 12:00
Wind Visibility
220° at 4 knots 10,000+ meters
Clouds
  • No significant clouds
Temporary Jan-19 @ 08:00 - Jan-19 @ 12:00
Clouds
  • Broken at 1,000' AGL